Time;durP1;ratioP1;P1;durP2;ratioP2;P2;SDS_P1;SDS_P2;PMS_P1;PMS_P2;Temp;Humidity;BMP_temperature;BMP_pressure;BME280_temperature;BME280_humidity;BME280_pressure;Samples;Min_cycle;Max_cycle;Signal;HPM_P1;HPM_P2
2021/03/26 00:01:34;;;;;;;11.63;9.25;;;;;;;;;;5035672;28;20464;-86
2021/03/26 00:04:01;;;;;;;12.20;9.40;;;;;;;;;;5025005;28;20394;-85
2021/03/26 00:06:28;;;;;;;15.63;10.50;;;;;;;;;;5035026;28;20528;-86
2021/03/26 00:08:54;;;;;;;12.27;9.30;;;;;;;;;;5018074;28;20406;-85
2021/03/26 00:11:21;;;;;;;13.90;9.27;;;;;;;;;;5018540;28;20393;-86
2021/03/26 00:13:47;;;;;;;15.93;9.97;;;;;;;;;;5006769;28;20407;-86
2021/03/26 00:16:13;;;;;;;13.10;9.52;;;;;;;;;;5031068;28;20423;-86
2021/03/26 00:18:39;;;;;;;12.45;10.48;;;;;;;;;;5014678;28;20403;-86
2021/03/26 00:21:05;;;;;;;14.55;9.30;;;;;;;;;;5029070;28;20500;-86
2021/03/26 00:23:31;;;;;;;13.87;9.80;;;;;;;;;;5017633;28;20885;-86
2021/03/26 00:25:58;;;;;;;15.00;9.75;;;;;;;;;;5052799;28;20476;-86
2021/03/26 00:28:24;;;;;;;12.40;9.40;;;;;;;;;;5017886;28;20401;-86
2021/03/26 00:30:50;;;;;;;11.45;9.32;;;;;;;;;;5014082;28;20397;-86
2021/03/26 00:33:15;;;;;;;12.47;9.00;;;;;;;;;;5018090;28;20486;-85
2021/03/26 00:35:45;;;;;;;13.75;9.73;;;;;;;;;;5017470;28;20432;-86
2021/03/26 00:38:11;;;;;;;13.13;9.53;;;;;;;;;;5033309;28;20429;-86
2021/03/26 00:40:40;;;;;;;14.98;10.00;;;;;;;;;;5033922;28;20447;-86
2021/03/26 00:43:06;;;;;;;12.02;9.77;;;;;;;;;;5017559;28;20456;-86
2021/03/26 00:45:33;;;;;;;14.65;9.75;;;;;;;;;;5018069;28;20421;-86
2021/03/26 00:47:59;;;;;;;11.63;9.00;;;;;;;;;;5033617;28;20393;-85
2021/03/26 00:50:25;;;;;;;12.63;8.90;;;;;;;;;;5033495;28;20397;-86
2021/03/26 00:52:51;;;;;;;11.35;8.00;;;;;;;;;;5051837;28;20389;-86
2021/03/26 00:55:17;;;;;;;12.15;8.77;;;;;;;;;;5047180;28;20502;-85
2021/03/26 00:57:43;;;;;;;10.23;7.53;;;;;;;;;;5017433;28;20401;-86
2021/03/26 01:00:10;;;;;;;13.77;8.00;;;;;;;;;;5034133;28;20432;-85
2021/03/26 01:02:36;;;;;;;9.98;8.32;;;;;;;;;;5034452;28;20500;-86
2021/03/26 01:05:02;;;;;;;13.50;8.75;;;;;;;;;;5017000;28;20540;-86
2021/03/26 01:07:28;;;;;;;10.50;8.02;;;;;;;;;;5016576;28;20433;-85
2021/03/26 01:09:54;;;;;;;11.23;7.93;;;;;;;;;;5014465;28;20415;-86
2021/03/26 01:12:20;;;;;;;11.68;8.75;;;;;;;;;;5020738;28;20409;-85
2021/03/26 01:14:46;;;;;;;14.93;8.80;;;;;;;;;;5025020;28;20835;-86
2021/03/26 01:17:12;;;;;;;11.03;8.30;;;;;;;;;;5017484;28;20773;-85
2021/03/26 01:19:42;;;;;;;13.50;8.65;;;;;;;;;;5002274;28;20407;-86
2021/03/26 01:22:08;;;;;;;14.03;8.57;;;;;;;;;;5033230;28;20420;-86
2021/03/26 01:24:34;;;;;;;13.00;8.10;;;;;;;;;;5017028;28;20429;-86
2021/03/26 01:27:00;;;;;;;14.07;9.18;;;;;;;;;;5017535;28;20425;-86
2021/03/26 01:29:26;;;;;;;12.50;8.63;;;;;;;;;;5033284;28;20393;-86
2021/03/26 01:31:52;;;;;;;10.75;7.95;;;;;;;;;;5050358;28;20944;-86
2021/03/26 01:34:18;;;;;;;12.23;8.57;;;;;;;;;;5016916;28;20389;-86
2021/03/26 01:36:44;;;;;;;9.77;7.97;;;;;;;;;;5051398;28;20467;-86
2021/03/26 01:39:15;;;;;;;10.45;8.43;;;;;;;;;;5033164;28;20389;-86
2021/03/26 01:41:42;;;;;;;12.35;8.40;;;;;;;;;;5017484;28;20393;-86
2021/03/26 01:44:08;;;;;;;10.45;8.07;;;;;;;;;;5012895;28;20402;-85
2021/03/26 01:46:38;;;;;;;12.30;8.23;;;;;;;;;;5030108;28;20889;-86
2021/03/26 01:49:07;;;;;;;10.20;8.50;;;;;;;;;;5032961;28;20401;-86
2021/03/26 01:51:35;;;;;;;9.77;7.90;;;;;;;;;;5017424;28;20730;-86
2021/03/26 01:54:01;;;;;;;9.25;7.50;;;;;;;;;;5033690;28;20382;-86
2021/03/26 01:56:27;;;;;;;10.10;7.45;;;;;;;;;;5016430;28;20426;-86
2021/03/26 01:58:58;;;;;;;12.05;8.10;;;;;;;;;;5037047;28;20397;-86
2021/03/26 02:01:28;;;;;;;9.10;7.70;;;;;;;;;;5015325;28;20486;-86
2021/03/26 02:03:55;;;;;;;10.20;7.15;;;;;;;;;;5037089;28;20389;-86
2021/03/26 02:06:22;;;;;;;10.50;8.07;;;;;;;;;;5035811;28;20504;-86
2021/03/26 02:08:48;;;;;;;11.48;7.72;;;;;;;;;;5036095;28;20401;-86
2021/03/26 02:11:29;;;;;;;10.80;7.32;;;;;;;;;;5037737;28;20388;-86
2021/03/26 02:13:55;;;;;;;12.88;8.70;;;;;;;;;;5034753;28;20428;-86
2021/03/26 02:16:22;;;;;;;9.18;7.28;;;;;;;;;;5024499;28;20789;-86
2021/03/26 02:18:48;;;;;;;10.57;7.40;;;;;;;;;;5020558;28;20768;-86
2021/03/26 02:21:19;;;;;;;9.25;7.55;;;;;;;;;;5037300;28;20404;-86
2021/03/26 02:23:45;;;;;;;10.15;7.85;;;;;;;;;;5036428;28;20404;-86
2021/03/26 02:26:14;;;;;;;9.52;7.15;;;;;;;;;;5024925;28;20416;-86
2021/03/26 02:28:40;;;;;;;11.20;7.78;;;;;;;;;;5051754;28;20400;-86
2021/03/26 02:31:06;;;;;;;14.57;8.50;;;;;;;;;;5037177;28;20608;-86
2021/03/26 02:33:32;;;;;;;10.80;7.75;;;;;;;;;;5034914;28;20391;-86
2021/03/26 02:36:13;;;;;;;10.20;7.97;;;;;;;;;;5020521;28;20927;-86
2021/03/26 02:38:53;;;;;;;11.70;7.67;;;;;;;;;;5053982;28;20413;-86
2021/03/26 02:41:21;;;;;;;12.65;8.60;;;;;;;;;;5036820;28;20396;-86
2021/03/26 02:43:59;;;;;;;11.88;8.43;;;;;;;;;;5012901;28;20916;-86
2021/03/26 02:46:42;;;;;;;11.10;8.25;;;;;;;;;;5034811;28;20375;-86
2021/03/26 02:49:09;;;;;;;10.18;8.93;;;;;;;;;;5036502;28;20386;-86
2021/03/26 02:51:37;;;;;;;11.93;8.15;;;;;;;;;;5015158;28;20401;-86
2021/03/26 02:54:11;;;;;;;8.60;7.68;;;;;;;;;;5033568;28;20803;-86
2021/03/26 02:56:44;;;;;;;10.68;8.68;;;;;;;;;;5036675;28;20425;-86
2021/03/26 02:59:16;;;;;;;11.05;8.50;;;;;;;;;;5036282;28;20921;-86
2021/03/26 03:01:44;;;;;;;11.05;7.53;;;;;;;;;;5016317;28;20411;-86
2021/03/26 03:04:12;;;;;;;10.68;7.85;;;;;;;;;;5036927;28;20386;-86
2021/03/26 03:06:42;;;;;;;9.67;8.23;;;;;;;;;;5020757;28;20413;-86
2021/03/26 03:09:08;;;;;;;11.15;8.27;;;;;;;;;;5035478;28;20476;-86
2021/03/26 03:11:36;;;;;;;11.30;8.65;;;;;;;;;;5036216;28;20406;-86
2021/03/26 03:14:05;;;;;;;12.45;10.55;;;;;;;;;;5036292;28;20416;-86
2021/03/26 03:16:33;;;;;;;17.48;11.00;;;;;;;;;;5019464;28;20425;-86
2021/03/26 03:19:03;;;;;;;18.43;10.87;;;;;;;;;;5017922;28;21891;-86
2021/03/26 03:21:30;;;;;;;17.05;10.73;;;;;;;;;;5036112;28;20427;-86
2021/03/26 03:24:06;;;;;;;14.98;11.18;;;;;;;;;;5036054;28;20496;-86
2021/03/26 03:26:38;;;;;;;15.27;10.38;;;;;;;;;;5035025;28;20459;-86
2021/03/26 03:29:12;;;;;;;12.20;10.00;;;;;;;;;;5035973;28;20405;-86
2021/03/26 03:31:57;;;;;;;14.20;10.32;;;;;;;;;;5036169;28;20377;-86
2021/03/26 03:34:31;;;;;;;12.25;10.30;;;;;;;;;;5052705;28;20503;-86
2021/03/26 03:36:57;;;;;;;13.13;10.15;;;;;;;;;;5051224;28;20417;-86
2021/03/26 03:39:27;;;;;;;15.60;9.90;;;;;;;;;;5030018;28;20793;-86
2021/03/26 03:41:59;;;;;;;12.15;9.80;;;;;;;;;;5035846;28;20987;-86
2021/03/26 03:44:25;;;;;;;15.02;9.73;;;;;;;;;;5033097;28;20407;-86
2021/03/26 03:47:17;;;;;;;13.85;10.18;;;;;;;;;;5034771;28;20405;-86
2021/03/26 03:49:55;;;;;;;14.85;9.38;;;;;;;;;;5020029;28;20932;-86
2021/03/26 03:52:48;;;;;;;13.85;9.65;;;;;;;;;;5035323;28;20405;-86
2021/03/26 03:55:18;;;;;;;9.82;8.70;;;;;;;;;;5047628;28;20413;-86
2021/03/26 03:57:45;;;;;;;10.43;8.38;;;;;;;;;;5034267;28;21011;-86
2021/03/26 04:00:19;;;;;;;11.47;7.80;;;;;;;;;;5035189;28;20465;-86
2021/03/26 04:02:54;;;;;;;15.43;9.33;;;;;;;;;;5018145;28;20417;-86
2021/03/26 04:05:26;;;;;;;11.80;8.73;;;;;;;;;;5018605;28;20405;-86
2021/03/26 04:07:53;;;;;;;15.80;9.98;;;;;;;;;;5050995;28;20401;-86
2021/03/26 04:10:19;;;;;;;14.55;11.00;;;;;;;;;;5018190;28;20496;-86
2021/03/26 04:12:46;;;;;;;11.25;10.07;;;;;;;;;;5018500;28;20480;-86
2021/03/26 04:15:20;;;;;;;11.27;10.07;;;;;;;;;;5052671;28;20424;-86
2021/03/26 04:17:54;;;;;;;12.07;10.30;;;;;;;;;;5017517;28;20452;-86
2021/03/26 04:20:22;;;;;;;12.38;10.27;;;;;;;;;;5018198;28;20493;-85
2021/03/26 04:22:52;;;;;;;15.65;11.82;;;;;;;;;;5016194;28;20404;-86
2021/03/26 04:25:26;;;;;;;18.00;11.77;;;;;;;;;;5033382;28;20411;-86
2021/03/26 04:27:55;;;;;;;12.20;10.07;;;;;;;;;;5047148;28;20452;-86
2021/03/26 04:30:23;;;;;;;15.65;9.95;;;;;;;;;;5049317;28;20416;-85
2021/03/26 04:32:49;;;;;;;11.52;8.80;;;;;;;;;;5033896;28;21045;-85
2021/03/26 04:35:15;;;;;;;12.25;9.05;;;;;;;;;;5018168;28;20425;-85
2021/03/26 04:37:46;;;;;;;12.07;8.38;;;;;;;;;;5018269;28;20424;-85
2021/03/26 04:40:13;;;;;;;11.45;9.02;;;;;;;;;;5017516;28;20416;-85
2021/03/26 04:42:44;;;;;;;11.10;8.10;;;;;;;;;;5017658;28;20428;-86
2021/03/26 04:45:10;;;;;;;12.82;8.75;;;;;;;;;;5024038;28;20404;-85
2021/03/26 04:47:56;;;;;;;10.95;8.68;;;;;;;;;;5046831;28;20916;-85
2021/03/26 04:50:28;;;;;;;10.68;8.82;;;;;;;;;;5034323;28;20385;-85
2021/03/26 04:52:57;;;;;;;18.13;9.18;;;;;;;;;;5034234;28;21014;-85
2021/03/26 04:55:24;;;;;;;15.10;10.00;;;;;;;;;;5029183;28;20418;-86
2021/03/26 04:57:50;;;;;;;11.73;8.93;;;;;;;;;;5013899;28;20422;-85
2021/03/26 05:00:20;;;;;;;15.43;9.68;;;;;;;;;;5032217;28;20395;-85
2021/03/26 05:02:47;;;;;;;13.55;9.35;;;;;;;;;;5011994;28;20409;-85
2021/03/26 05:05:13;;;;;;;13.90;9.20;;;;;;;;;;5016808;28;20432;-85
2021/03/26 05:07:41;;;;;;;13.60;9.55;;;;;;;;;;5017505;28;20912;-85
2021/03/26 05:10:08;;;;;;;14.17;9.20;;;;;;;;;;5015865;28;20536;-85
2021/03/26 05:12:35;;;;;;;12.30;9.10;;;;;;;;;;5033925;28;20480;-86
2021/03/26 05:15:05;;;;;;;13.70;9.15;;;;;;;;;;5016391;28;20413;-86
2021/03/26 05:17:48;;;;;;;12.50;9.27;;;;;;;;;;5026928;28;20764;-86
2021/03/26 05:20:14;;;;;;;13.90;9.50;;;;;;;;;;5020199;28;20482;-87
2021/03/26 05:22:59;;;;;;;13.32;9.50;;;;;;;;;;5025411;28;20772;-89
2021/03/26 05:25:38;;;;;;;14.82;9.30;;;;;;;;;;5034160;28;20962;-87
2021/03/26 05:28:05;;;;;;;14.60;9.50;;;;;;;;;;5031266;28;20496;-87
2021/03/26 05:30:38;;;;;;;13.88;10.32;;;;;;;;;;5017021;28;20413;-87
2021/03/26 05:33:08;;;;;;;14.38;10.13;;;;;;;;;;5017468;28;20387;-87
2021/03/26 05:35:38;;;;;;;14.07;10.20;;;;;;;;;;5043132;28;20411;-87
2021/03/26 05:38:15;;;;;;;19.38;10.98;;;;;;;;;;5031083;28;20411;-87
2021/03/26 05:41:00;;;;;;;20.13;11.20;;;;;;;;;;5013962;28;20401;-87
2021/03/26 05:43:35;;;;;;;15.65;9.45;;;;;;;;;;5030927;28;20413;-87
2021/03/26 05:46:20;;;;;;;15.57;10.37;;;;;;;;;;5051364;28;20404;-87
2021/03/26 05:49:05;;;;;;;18.02;9.30;;;;;;;;;;5031173;28;20441;-87
2021/03/26 05:51:31;;;;;;;12.35;9.32;;;;;;;;;;5046885;28;20466;-88
2021/03/26 05:54:12;;;;;;;16.88;9.48;;;;;;;;;;5044486;28;20405;-87
2021/03/26 05:56:40;;;;;;;15.02;10.20;;;;;;;;;;5015908;28;20474;-87
2021/03/26 05:59:21;;;;;;;17.77;10.57;;;;;;;;;;5016374;28;20405;-88
2021/03/26 06:01:49;;;;;;;15.60;9.73;;;;;;;;;;5033444;28;20489;-87
2021/03/26 06:04:34;;;;;;;12.80;9.52;;;;;;;;;;5033333;28;20821;-87
2021/03/26 06:07:06;;;;;;;19.20;11.20;;;;;;;;;;5024930;28;20394;-87
2021/03/26 06:09:48;;;;;;;12.73;10.10;;;;;;;;;;5029480;28;20412;-87
2021/03/26 06:12:29;;;;;;;13.55;10.07;;;;;;;;;;5016670;28;20466;-87
2021/03/26 06:15:01;;;;;;;12.65;9.80;;;;;;;;;;5050887;28;20847;-87
2021/03/26 06:17:27;;;;;;;12.68;9.80;;;;;;;;;;5051047;28;20397;-87
2021/03/26 06:20:16;;;;;;;12.37;9.67;;;;;;;;;;5030761;28;20968;-86
2021/03/26 06:22:48;;;;;;;12.45;9.63;;;;;;;;;;5032779;28;20413;-88
2021/03/26 06:25:23;;;;;;;13.13;8.63;;;;;;;;;;5045670;28;20406;-87
2021/03/26 06:27:58;;;;;;;10.95;8.13;;;;;;;;;;5014582;28;20387;-87
2021/03/26 06:30:24;;;;;;;12.18;8.82;;;;;;;;;;5047011;28;20425;-87
2021/03/26 06:32:50;;;;;;;12.40;8.30;;;;;;;;;;5033163;28;20782;-89
2021/03/26 06:35:35;;;;;;;10.48;7.72;;;;;;;;;;5047976;28;20450;-89
2021/03/26 06:38:24;;;;;;;12.70;7.82;;;;;;;;;;5033075;28;21098;-89
2021/03/26 06:40:50;;;;;;;13.45;7.60;;;;;;;;;;5016836;28;20409;-87
2021/03/26 06:43:23;;;;;;;11.75;7.88;;;;;;;;;;5034177;28;20397;-87
2021/03/26 06:46:07;;;;;;;9.23;6.32;;;;;;;;;;5035611;28;20440;-87
2021/03/26 06:48:52;;;;;;;15.63;7.75;;;;;;;;;;5036627;28;20422;-89
2021/03/26 06:51:18;;;;;;;11.20;7.53;;;;;;;;;;5036939;28;20413;-87
2021/03/26 06:54:06;;;;;;;13.10;7.40;;;;;;;;;;5029019;28;20801;-87
2021/03/26 06:57:01;;;;;;;8.90;6.68;;;;;;;;;;5043373;28;20484;-86
2021/03/26 06:59:42;;;;;;;13.15;7.13;;;;;;;;;;5035969;28;20479;-87
2021/03/26 07:02:11;;;;;;;11.82;6.75;;;;;;;;;;5035315;28;20420;-86
2021/03/26 07:05:00;;;;;;;11.37;7.00;;;;;;;;;;5053915;28;20471;-86
2021/03/26 07:07:45;;;;;;;9.03;6.60;;;;;;;;;;5024124;28;20939;-86
2021/03/26 07:10:14;;;;;;;9.30;6.20;;;;;;;;;;5036510;28;20396;-86
2021/03/26 07:16:13;;;;;;;8.77;6.45;;;;;;;;;;5034549;28;20437;-85
2021/03/26 07:18:45;;;;;;;8.23;5.90;;;;;;;;;;5016506;28;20390;-85
2021/03/26 07:21:19;;;;;;;10.45;6.38;;;;;;;;;;5034493;28;20481;-85
2021/03/26 07:23:48;;;;;;;7.40;5.60;;;;;;;;;;5035191;28;20504;-85
2021/03/26 07:26:20;;;;;;;8.35;5.75;;;;;;;;;;5052339;28;20430;-85
2021/03/26 07:28:50;;;;;;;12.80;5.68;;;;;;;;;;5035515;28;20382;-85
2021/03/26 07:31:19;;;;;;;9.93;5.55;;;;;;;;;;5033407;28;20784;-85
2021/03/26 07:33:51;;;;;;;11.23;5.38;;;;;;;;;;5035455;28;20444;-86
2021/03/26 07:36:23;;;;;;;6.43;5.22;;;;;;;;;;5019229;28;20447;-85
2021/03/26 07:39:11;;;;;;;8.27;5.88;;;;;;;;;;5035082;28;20397;-86
2021/03/26 07:41:43;;;;;;;10.10;5.07;;;;;;;;;;5026457;28;20498;-85
2021/03/26 07:44:30;;;;;;;9.40;5.40;;;;;;;;;;5036500;28;20424;-85
2021/03/26 07:47:15;;;;;;;9.40;6.13;;;;;;;;;;5018623;28;20772;-85
2021/03/26 07:49:45;;;;;;;10.40;6.13;;;;;;;;;;5035410;28;20954;-85
2021/03/26 07:52:19;;;;;;;7.30;5.97;;;;;;;;;;5053660;28;20904;-85
2021/03/26 07:54:57;;;;;;;9.25;6.55;;;;;;;;;;5028607;28;20777;-85
2021/03/26 07:57:42;;;;;;;9.52;7.40;;;;;;;;;;4999664;28;20411;-85
2021/03/26 08:00:26;;;;;;;9.90;7.65;;;;;;;;;;5015748;28;20391;-86
2021/03/26 08:03:06;;;;;;;10.95;8.43;;;;;;;;;;5023175;28;20487;-84
2021/03/26 08:05:42;;;;;;;10.48;8.20;;;;;;;;;;5018038;28;20405;-85
2021/03/26 08:08:37;;;;;;;11.57;8.23;;;;;;;;;;5018379;28;20409;-85
2021/03/26 08:11:25;;;;;;;10.80;7.95;;;;;;;;;;4981269;28;20896;-85
2021/03/26 08:14:05;;;;;;;9.15;6.95;;;;;;;;;;5011569;28;20397;-85
2021/03/26 08:16:49;;;;;;;9.10;6.60;;;;;;;;;;5018690;28;20463;-86
2021/03/26 08:19:29;;;;;;;8.70;7.05;;;;;;;;;;5035085;28;20433;-86
2021/03/26 08:21:56;;;;;;;8.80;6.47;;;;;;;;;;5018644;28;20412;-86
2021/03/26 08:24:41;;;;;;;8.38;6.05;;;;;;;;;;5034190;28;20445;-86
2021/03/26 08:27:18;;;;;;;10.63;5.95;;;;;;;;;;5034782;28;20738;-86
2021/03/26 08:29:52;;;;;;;9.80;6.28;;;;;;;;;;5052691;28;20389;-86
2021/03/26 08:32:37;;;;;;;6.72;5.97;;;;;;;;;;5017899;28;20417;-87
2021/03/26 08:35:24;;;;;;;9.93;6.57;;;;;;;;;;5052677;28;20441;-90
2021/03/26 08:38:09;;;;;;;5.78;5.18;;;;;;;;;;5016943;28;20397;-86
2021/03/26 08:40:53;;;;;;;8.63;5.75;;;;;;;;;;5033810;28;20402;-87
2021/03/26 08:43:19;;;;;;;7.30;6.03;;;;;;;;;;5034389;28;20938;-86
2021/03/26 08:45:50;;;;;;;6.30;5.50;;;;;;;;;;5016825;28;20405;-86
2021/03/26 08:48:23;;;;;;;7.25;5.60;;;;;;;;;;5033364;28;20405;-87
2021/03/26 08:50:58;;;;;;;11.33;7.43;;;;;;;;;;5012855;28;20979;-87
2021/03/26 08:56:51;;;;;;;10.77;7.70;;;;;;;;;;5038471;28;20428;-87
2021/03/26 08:59:41;;;;;;;7.32;5.93;;;;;;;;;;5032091;28;20436;-87
2021/03/26 09:02:26;;;;;;;7.38;5.82;;;;;;;;;;5033229;28;20899;-87
2021/03/26 09:05:00;;;;;;;7.07;5.15;;;;;;;;;;5052169;28;20428;-87
2021/03/26 09:07:45;;;;;;;6.05;5.18;;;;;;;;;;5053942;28;20432;-87
2021/03/26 09:10:29;;;;;;;8.93;5.50;;;;;;;;;;5049737;28;20396;-87
2021/03/26 09:13:15;;;;;;;6.70;5.45;;;;;;;;;;5032030;28;20436;-87
2021/03/26 09:15:59;;;;;;;6.97;5.70;;;;;;;;;;5017590;28;20421;-87
2021/03/26 09:18:41;;;;;;;6.73;6.03;;;;;;;;;;5023968;28;20467;-87
2021/03/26 09:21:20;;;;;;;6.30;5.80;;;;;;;;;;5007730;28;20417;-87
2021/03/26 09:23:58;;;;;;;6.75;5.80;;;;;;;;;;5007356;28;20409;-86
2021/03/26 09:26:43;;;;;;;7.53;5.97;;;;;;;;;;5023886;28;23196;-88
2021/03/26 09:29:19;;;;;;;7.05;6.40;;;;;;;;;;5026684;28;20427;-87
2021/03/26 09:32:04;;;;;;;6.25;5.60;;;;;;;;;;5002376;28;20423;-88
2021/03/26 09:34:31;;;;;;;7.80;6.80;;;;;;;;;;5007701;28;20410;-87
2021/03/26 09:37:18;;;;;;;9.32;7.55;;;;;;;;;;5007194;28;20425;-87
2021/03/26 09:39:45;;;;;;;8.75;6.47;;;;;;;;;;5005251;28;20482;-87
2021/03/26 09:42:14;;;;;;;6.88;5.63;;;;;;;;;;5007301;28;20405;-88
2021/03/26 09:44:43;;;;;;;5.95;5.45;;;;;;;;;;5005224;28;20408;-87
2021/03/26 09:47:20;;;;;;;7.15;6.45;;;;;;;;;;4999600;28;20429;-87
2021/03/26 09:49:45;;;;;;;6.15;5.57;;;;;;;;;;5006788;28;20418;-88
2021/03/26 09:52:32;;;;;;;6.68;5.70;;;;;;;;;;5024115;28;20439;-88
2021/03/26 09:55:02;;;;;;;7.55;6.28;;;;;;;;;;4991785;28;20441;-87
2021/03/26 09:57:34;;;;;;;6.57;5.93;;;;;;;;;;5005004;28;20417;-88
2021/03/26 10:00:39;;;;;;;6.35;5.85;;;;;;;;;;5002709;28;20780;-88
2021/03/26 10:03:21;;;;;;;6.83;6.17;;;;;;;;;;4947612;28;20424;-88
2021/03/26 10:05:53;;;;;;;7.30;5.95;;;;;;;;;;5002454;28;20428;-88
2021/03/26 10:11:08;;;;;;;6.90;6.30;;;;;;;;;;5026187;28;20421;-88
2021/03/26 10:13:35;;;;;;;7.72;6.78;;;;;;;;;;4993016;28;21096;-88
2021/03/26 10:16:03;;;;;;;7.75;6.47;;;;;;;;;;4990421;28;20440;-88
2021/03/26 10:18:37;;;;;;;7.03;6.35;;;;;;;;;;5026290;28;20500;-88
2021/03/26 10:21:38;;;;;;;8.05;6.15;;;;;;;;;;5008071;28;20428;-88
2021/03/26 10:24:11;;;;;;;6.40;5.80;;;;;;;;;;5003481;28;20900;-88
2021/03/26 10:26:50;;;;;;;10.32;6.93;;;;;;;;;;5036300;28;20421;-89
2021/03/26 10:29:16;;;;;;;8.95;6.63;;;;;;;;;;5019975;28;20401;-88
2021/03/26 10:31:46;;;;;;;7.72;6.65;;;;;;;;;;5048529;28;20450;-88
2021/03/26 10:34:16;;;;;;;7.00;6.30;;;;;;;;;;5021028;28;20448;-88
2021/03/26 10:36:44;;;;;;;6.50;5.87;;;;;;;;;;5020768;28;20893;-89
2021/03/26 10:39:17;;;;;;;7.07;6.47;;;;;;;;;;5036765;28;20711;-88
2021/03/26 10:42:02;;;;;;;8.90;6.38;;;;;;;;;;5036673;28;20428;-88
2021/03/26 10:44:46;;;;;;;7.90;6.47;;;;;;;;;;5036528;28;20450;-88
2021/03/26 10:47:12;;;;;;;6.72;6.05;;;;;;;;;;5054063;28;20432;-87
2021/03/26 10:49:43;;;;;;;7.13;6.43;;;;;;;;;;5036721;28;20400;-88
2021/03/26 10:52:29;;;;;;;7.90;7.10;;;;;;;;;;5035822;28;20746;-88
2021/03/26 10:54:57;;;;;;;8.18;7.05;;;;;;;;;;5036462;28;20485;-88
2021/03/26 10:57:29;;;;;;;6.75;6.22;;;;;;;;;;5020378;28;20885;-88
2021/03/26 10:59:55;;;;;;;7.30;6.25;;;;;;;;;;5019066;28;20424;-88
2021/03/26 11:02:26;;;;;;;7.47;6.25;;;;;;;;;;5054199;28;20401;-88
2021/03/26 11:05:14;;;;;;;7.47;6.70;;;;;;;;;;5018530;28;20408;-88
2021/03/26 11:07:46;;;;;;;9.68;6.88;;;;;;;;;;5034341;28;20388;-88
2021/03/26 11:10:13;;;;;;;7.30;6.60;;;;;;;;;;5033410;28;20878;-89
2021/03/26 11:12:48;;;;;;;7.23;6.50;;;;;;;;;;5033302;28;20397;-88
2021/03/26 11:15:15;;;;;;;6.82;5.70;;;;;;;;;;5036118;28;20414;-88
2021/03/26 11:17:42;;;;;;;8.98;7.13;;;;;;;;;;5035575;28;20405;-89
2021/03/26 11:20:11;;;;;;;6.30;5.70;;;;;;;;;;5037806;28;20761;-89
2021/03/26 11:22:44;;;;;;;7.15;6.53;;;;;;;;;;5033659;28;20432;-89
2021/03/26 11:25:10;;;;;;;7.32;6.35;;;;;;;;;;5021253;28;20440;-89
2021/03/26 11:27:48;;;;;;;7.90;6.90;;;;;;;;;;5039325;28;20396;-89
2021/03/26 11:30:33;;;;;;;7.38;5.78;;;;;;;;;;5038222;28;20445;-89
2021/03/26 11:33:05;;;;;;;7.13;6.50;;;;;;;;;;5044821;28;20428;-88
2021/03/26 11:35:33;;;;;;;7.93;6.72;;;;;;;;;;5018486;28;20453;-91
2021/03/26 11:38:01;;;;;;;7.13;5.88;;;;;;;;;;5017426;28;20501;-88
2021/03/26 11:40:30;;;;;;;6.40;5.78;;;;;;;;;;5019151;28;20429;-88
2021/03/26 11:43:12;;;;;;;6.72;6.07;;;;;;;;;;5049831;28;20429;-88
2021/03/26 11:45:38;;;;;;;6.22;5.55;;;;;;;;;;5035692;28;20401;-88
2021/03/26 11:48:16;;;;;;;6.90;5.43;;;;;;;;;;5053188;28;20447;-92
2021/03/26 11:50:44;;;;;;;5.45;4.95;;;;;;;;;;5053245;28;20392;-88
2021/03/26 11:53:23;;;;;;;5.60;5.07;;;;;;;;;;5053109;28;20405;-88
2021/03/26 11:55:59;;;;;;;5.85;5.35;;;;;;;;;;5030601;28;20480;-88
2021/03/26 11:58:43;;;;;;;5.22;4.72;;;;;;;;;;5036877;28;20421;-88
2021/03/26 12:01:12;;;;;;;5.53;5.00;;;;;;;;;;5045199;28;20961;-89
2021/03/26 12:03:46;;;;;;;5.57;5.05;;;;;;;;;;5018712;28;20884;-88
2021/03/26 12:06:41;;;;;;;6.53;5.32;;;;;;;;;;5019298;28;20480;-89
2021/03/26 12:09:13;;;;;;;5.65;5.15;;;;;;;;;;5036231;28;20858;-89
2021/03/26 12:11:55;;;;;;;6.32;5.72;;;;;;;;;;5044846;28;20400;-90
2021/03/26 12:14:22;;;;;;;6.20;5.10;;;;;;;;;;5014725;28;20435;-89
2021/03/26 12:16:54;;;;;;;5.30;4.90;;;;;;;;;;5002303;28;20815;-88
2021/03/26 12:19:21;;;;;;;6.43;5.72;;;;;;;;;;5012969;28;20493;-88
2021/03/26 12:21:57;;;;;;;5.22;4.80;;;;;;;;;;5011388;28;20403;-88
2021/03/26 12:24:35;;;;;;;7.43;5.25;;;;;;;;;;4978315;28;20406;-87
2021/03/26 12:27:07;;;;;;;4.78;4.40;;;;;;;;;;4995502;28;20857;-89
2021/03/26 12:29:33;;;;;;;5.35;4.90;;;;;;;;;;4995597;28;20489;-87
2021/03/26 12:32:02;;;;;;;6.07;4.47;;;;;;;;;;5011834;28;20497;-89
2021/03/26 12:34:53;;;;;;;5.03;4.63;;;;;;;;;;5001132;28;20417;-89
2021/03/26 12:37:21;;;;;;;6.40;5.15;;;;;;;;;;5006593;28;20765;-90
2021/03/26 12:39:48;;;;;;;7.65;4.97;;;;;;;;;;4979177;28;20433;-89
2021/03/26 12:42:21;;;;;;;5.50;5.00;;;;;;;;;;4978288;28;20417;-90
2021/03/26 12:44:53;;;;;;;4.63;4.22;;;;;;;;;;5011308;28;20416;-89
2021/03/26 12:47:21;;;;;;;6.45;4.82;;;;;;;;;;5012508;28;20428;-88
2021/03/26 12:49:55;;;;;;;4.80;4.40;;;;;;;;;;4978391;28;20908;-88
2021/03/26 12:52:24;;;;;;;5.65;4.57;;;;;;;;;;4978896;28;20409;-88
2021/03/26 12:54:55;;;;;;;5.30;4.80;;;;;;;;;;5004231;28;20491;-88
2021/03/26 12:57:28;;;;;;;7.50;5.50;;;;;;;;;;4978146;28;20759;-89
2021/03/26 13:00:04;;;;;;;6.27;5.20;;;;;;;;;;4994815;28;20461;-88
2021/03/26 13:02:32;;;;;;;7.38;5.10;;;;;;;;;;4975329;28;20412;-89
2021/03/26 13:05:03;;;;;;;8.70;5.73;;;;;;;;;;4976777;28;20411;-88
2021/03/26 13:07:35;;;;;;;5.85;5.00;;;;;;;;;;4992440;28;20416;-88
2021/03/26 13:10:09;;;;;;;6.85;5.03;;;;;;;;;;5010426;28;20423;-87
2021/03/26 13:12:38;;;;;;;5.05;4.50;;;;;;;;;;5019480;28;20425;-88
2021/03/26 13:15:34;;;;;;;6.80;4.90;;;;;;;;;;5003642;28;20423;-88
2021/03/26 13:18:12;;;;;;;6.03;4.40;;;;;;;;;;5015941;28;20423;-88
2021/03/26 13:20:47;;;;;;;4.80;4.35;;;;;;;;;;5015728;28;20391;-88
2021/03/26 13:23:16;;;;;;;4.93;4.43;;;;;;;;;;5028587;28;20407;-88
2021/03/26 13:25:45;;;;;;;5.03;4.05;;;;;;;;;;5018847;28;20419;-87
2021/03/26 13:28:24;;;;;;;4.70;4.00;;;;;;;;;;5014626;28;20742;-88
2021/03/26 13:30:52;;;;;;;6.70;3.53;;;;;;;;;;5028238;28;20395;-88
2021/03/26 13:33:37;;;;;;;3.88;3.58;;;;;;;;;;5018288;28;20890;-88
2021/03/26 13:36:09;;;;;;;9.40;3.60;;;;;;;;;;5028047;28;20493;-88
2021/03/26 13:38:40;;;;;;;6.70;3.73;;;;;;;;;;5032402;28;20398;-88
2021/03/26 13:41:08;;;;;;;3.33;3.03;;;;;;;;;;5030097;28;20399;-87
2021/03/26 13:43:38;;;;;;;4.05;2.85;;;;;;;;;;5001544;28;20423;-88
2021/03/26 13:46:05;;;;;;;3.03;2.72;;;;;;;;;;5018792;28;20522;-88
2021/03/26 13:48:32;;;;;;;3.97;3.53;;;;;;;;;;5014883;28;20399;-87
2021/03/26 13:51:05;;;;;;;6.97;3.10;;;;;;;;;;5019382;28;20415;-87
2021/03/26 13:53:34;;;;;;;3.75;3.13;;;;;;;;;;5018237;28;20403;-87
2021/03/26 13:56:09;;;;;;;5.03;3.53;;;;;;;;;;5031474;28;20375;-87
2021/03/26 13:58:40;;;;;;;3.58;3.28;;;;;;;;;;5031341;28;20383;-87
2021/03/26 14:01:14;;;;;;;3.92;3.30;;;;;;;;;;5014313;28;20419;-87
2021/03/26 14:03:52;;;;;;;8.75;3.70;;;;;;;;;;4997339;28;20407;-88
2021/03/26 14:06:24;;;;;;;4.97;2.97;;;;;;;;;;5010637;28;20823;-87
2021/03/26 14:08:58;;;;;;;4.25;2.70;;;;;;;;;;5024906;28;20391;-87
2021/03/26 14:11:29;;;;;;;4.45;2.92;;;;;;;;;;4997699;28;20407;-87
2021/03/26 14:13:58;;;;;;;4.07;2.83;;;;;;;;;;4993839;28;20406;-87
2021/03/26 14:16:38;;;;;;;4.47;3.03;;;;;;;;;;4998101;28;20395;-90
2021/03/26 14:19:11;;;;;;;5.30;3.50;;;;;;;;;;4996758;28;20895;-88
2021/03/26 14:21:49;;;;;;;3.50;3.00;;;;;;;;;;5021952;28;20405;-88
2021/03/26 14:24:34;;;;;;;4.10;3.33;;;;;;;;;;5025385;28;20455;-90
2021/03/26 14:27:02;;;;;;;3.88;3.25;;;;;;;;;;5020227;28;20465;-88
2021/03/26 14:29:34;;;;;;;4.22;2.80;;;;;;;;;;5031273;28;20437;-88
2021/03/26 14:32:04;;;;;;;3.10;2.73;;;;;;;;;;4997054;28;20418;-87
2021/03/26 14:34:34;;;;;;;7.43;3.35;;;;;;;;;;4995657;28;20433;-88
2021/03/26 14:37:19;;;;;;;5.13;3.30;;;;;;;;;;5030880;28;20403;-88
2021/03/26 14:39:45;;;;;;;3.78;3.38;;;;;;;;;;5030209;28;20394;-88
2021/03/26 14:42:23;;;;;;;6.43;3.35;;;;;;;;;;5025539;28;20430;-88
2021/03/26 14:44:53;;;;;;;3.42;2.80;;;;;;;;;;4996730;28;20387;-88
2021/03/26 14:47:23;;;;;;;6.27;3.73;;;;;;;;;;5012410;28;20403;-88
2021/03/26 14:49:49;;;;;;;3.75;2.97;;;;;;;;;;5002462;28;20920;-88
2021/03/26 14:52:24;;;;;;;6.63;3.47;;;;;;;;;;4997104;28;20426;-88
2021/03/26 14:54:51;;;;;;;4.00;3.20;;;;;;;;;;5013658;28;20940;-88
2021/03/26 14:57:23;;;;;;;7.90;3.63;;;;;;;;;;5012926;28;20398;-88
2021/03/26 15:00:07;;;;;;;3.90;3.03;;;;;;;;;;5013421;28;20407;-88
2021/03/26 15:02:56;;;;;;;3.92;3.08;;;;;;;;;;5030113;28;20407;-88
2021/03/26 15:05:23;;;;;;;3.17;2.97;;;;;;;;;;4986594;28;20766;-87
2021/03/26 15:07:49;;;;;;;4.95;3.10;;;;;;;;;;5032084;28;20517;-88
2021/03/26 15:10:45;;;;;;;6.88;3.45;;;;;;;;;;5016125;28;20401;-88
2021/03/26 15:13:13;;;;;;;4.30;3.30;;;;;;;;;;5016909;28;20407;-88
2021/03/26 15:15:46;;;;;;;4.07;3.10;;;;;;;;;;5028432;28;20426;-88
2021/03/26 15:18:42;;;;;;;6.15;3.45;;;;;;;;;;5017283;28;20866;-88
2021/03/26 15:21:31;;;;;;;3.80;3.37;;;;;;;;;;4963557;28;20446;-88